Time,TemperatureF,DewpointF,PressureIn,WindDirection,WindDirectionDegrees,WindSpeedMPH,WindSpeedGustMPH,Humidity,HourlyPrecipIn,Conditions,Clouds,dailyrainin,SoftwareType,DateUTC
2017-02-22 00:10:00,40.0,30.0,30.05,WNW,289,0.0,3.0,68,-99.99,,,-99.99,,2017-02-22 05:10:00,
2017-02-22 00:28:00,40.0,31.0,30.06,WNW,300,0.0,3.0,69,-99.99,,,-99.99,,2017-02-22 05:28:00,
2017-02-22 00:51:00,40.0,31.0,30.06,West,276,0.0,1.0,70,-99.99,,,-99.99,,2017-02-22 05:51:00,
2017-02-22 01:10:00,39.0,31.0,30.05,West,276,1.0,4.0,72,-99.99,,,-99.99,,2017-02-22 06:10:00,
2017-02-22 01:28:00,39.0,31.0,30.04,West,274,0.0,2.0,74,-99.99,,,-99.99,,2017-02-22 06:28:00,
2017-02-22 01:59:00,39.0,32.0,30.03,West,271,0.0,2.0,75,-99.99,,,-99.99,,2017-02-22 06:59:00,
2017-02-22 02:18:00,39.0,32.0,30.03,West,262,0.0,2.0,75,-99.99,,,-99.99,,2017-02-22 07:18:00,
2017-02-22 02:40:00,39.0,32.0,30.03,West,281,0.0,1.0,75,-99.99,,,-99.99,,2017-02-22 07:40:00,
2017-02-22 02:59:00,39.0,31.0,30.02,West,281,0.0,1.0,74,-99.99,,,-99.99,,2017-02-22 07:59:00,
2017-02-22 03:48:00,39.0,31.0,30.01,West,278,0.0,2.0,74,-99.99,,,-99.99,,2017-02-22 08:48:00,
2017-02-22 04:09:00,39.0,31.0,30.01,West,268,0.0,2.0,74,-99.99,,,-99.99,,2017-02-22 09:09:00,
2017-02-22 04:28:00,39.0,31.0,30.01,West,278,0.0,2.0,74,-99.99,,,-99.99,,2017-02-22 09:28:00,
2017-02-22 04:48:00,39.0,31.0,30.00,West,270,0.0,3.0,74,-99.99,,,-99.99,,2017-02-22 09:48:00,
2017-02-22 05:09:00,39.0,31.0,30.00,West,279,0.0,2.0,74,-99.99,,,-99.99,,2017-02-22 10:09:00,
2017-02-22 05:28:00,39.0,31.0,30.00,West,278,0.0,1.0,74,-99.99,,,-99.99,,2017-02-22 10:28:00,
2017-02-22 05:57:00,38.0,31.0,30.00,West,278,0.0,-999.0,75,-99.99,,,-99.99,,2017-02-22 10:57:00,
2017-02-22 06:18:00,38.0,31.0,30.00,WNW,283,0.0,-999.0,76,-99.99,,,-99.99,,2017-02-22 11:18:00,
2017-02-22 07:10:00,38.0,31.0,30.02,WNW,284,0.0,1.0,77,-99.99,,,-99.99,,2017-02-22 12:10:00,
2017-02-22 07:29:00,38.0,31.0,30.02,WNW,284,0.0,0.0,76,-99.99,,,-99.99,,2017-02-22 12:29:00,
2017-02-22 08:18:00,40.0,33.0,30.02,WNW,284,0.0,-999.0,75,-99.99,,,-99.99,,2017-02-22 13:18:00,
2017-02-22 08:41:00,40.0,32.0,30.02,West,273,0.0,2.0,74,-99.99,,,-99.99,,2017-02-22 13:41:00,
2017-02-22 09:10:00,41.0,33.0,30.01,West,266,0.0,4.0,72,-99.99,,,-99.99,,2017-02-22 14:10:00,
2017-02-22 09:28:00,42.0,33.0,30.00,West,278,0.0,3.0,71,-99.99,,,-99.99,,2017-02-22 14:28:00,
2017-02-22 10:10:00,45.0,34.0,30.00,WNW,282,0.0,3.0,66,-99.99,,,-99.99,,2017-02-22 15:10:00,
2017-02-22 10:28:00,47.0,35.0,29.99,WNW,292,1.0,4.0,63,-99.99,,,-99.99,,2017-02-22 15:28:00,
2017-02-22 10:47:00,47.0,35.0,29.99,WNW,292,1.0,4.0,63,-99.99,,,-99.99,,2017-02-22 15:47:00,
2017-02-22 10:57:00,49.0,35.0,29.99,West,273,0.0,4.0,59,-99.99,,,-99.99,,2017-02-22 15:57:00,
2017-02-22 11:17:00,49.0,35.0,29.98,WNW,283,1.0,4.0,58,-99.99,,,-99.99,,2017-02-22 16:17:00,
2017-02-22 11:31:00,50.0,35.0,29.97,West,281,3.0,-999.0,57,-99.99,,,-99.99,,2017-02-22 16:31:00,
2017-02-22 11:48:00,50.0,35.0,29.96,West,272,2.0,4.0,57,-99.99,,,-99.99,,2017-02-22 16:48:00,
2017-02-22 12:11:00,51.0,35.0,29.95,West,270,1.0,3.0,55,-99.99,,,-99.99,,2017-02-22 17:11:00,
2017-02-22 12:27:00,52.0,36.0,29.94,WNW,285,-999.9,-999.0,55,-99.99,,,-99.99,,2017-02-22 17:27:00,
2017-02-22 12:48:00,53.0,35.0,29.92,West,274,1.0,5.0,51,-99.99,,,-99.99,,2017-02-22 17:48:00,
2017-02-22 13:10:00,54.0,36.0,29.92,WSW,245,1.0,5.0,51,-99.99,,,-99.99,,2017-02-22 18:10:00,
2017-02-22 13:31:00,55.0,37.0,29.91,WNW,286,0.0,2.0,50,-99.99,,,-99.99,,2017-02-22 18:31:00,